sensor_id;sensor_type;location;lat;lon;timestamp;pressure;altitude;pressure_sealevel;temperature;humidity
11487;BME280;10510;47.942;9.442;2022-11-13T00:01:58;95525.03;;;4.12;100.00
11487;BME280;10510;47.942;9.442;2022-11-13T00:03:58;95516.00;;;4.06;100.00
11487;BME280;10510;47.942;9.442;2022-11-13T00:05:59;95516.00;;;4.06;100.00
11487;BME280;10510;47.942;9.442;2022-11-13T00:08:00;95511.88;;;4.04;100.00
11487;BME280;10510;47.942;9.442;2022-11-13T00:10:00;95515.38;;;4.03;100.00
11487;BME280;10510;47.942;9.442;2022-11-13T00:12:01;95511.41;;;3.99;100.00
11487;BME280;10510;47.942;9.442;2022-11-13T00:14:01;95505.44;;;3.98;100.00
11487;BME280;10510;47.942;9.442;2022-11-13T00:16:04;95506.13;;;4.00;100.00
11487;BME280;10510;47.942;9.442;2022-11-13T00:18:05;95495.78;;;4.00;100.00
11487;BME280;10510;47.942;9.442;2022-11-13T00:20:05;95494.38;;;3.96;100.00
11487;BME280;10510;47.942;9.442;2022-11-13T00:22:06;95496.38;;;3.93;100.00
11487;BME280;10510;47.942;9.442;2022-11-13T00:24:06;95492.97;;;3.92;100.00
11487;BME280;10510;47.942;9.442;2022-11-13T00:26:18;95495.00;;;3.89;100.00
11487;BME280;10510;47.942;9.442;2022-11-13T00:28:19;95488.31;;;3.86;100.00
11487;BME280;10510;47.942;9.442;2022-11-13T00:30:19;95491.94;;;3.83;100.00
11487;BME280;10510;47.942;9.442;2022-11-13T00:32:19;95481.03;;;3.80;100.00
11487;BME280;10510;47.942;9.442;2022-11-13T00:34:20;95482.09;;;3.77;100.00
11487;BME280;10510;47.942;9.442;2022-11-13T00:36:22;95483.16;;;3.75;100.00
11487;BME280;10510;47.942;9.442;2022-11-13T00:38:23;95483.16;;;3.75;100.00
11487;BME280;10510;47.942;9.442;2022-11-13T00:40:23;95487.38;;;3.76;100.00
11487;BME280;10510;47.942;9.442;2022-11-13T00:42:23;95482.91;;;3.78;100.00
11487;BME280;10510;47.942;9.442;2022-11-13T00:44:24;95478.69;;;3.77;100.00
11487;BME280;10510;47.942;9.442;2022-11-13T00:46:24;95477.16;;;3.74;100.00
11487;BME280;10510;47.942;9.442;2022-11-13T00:48:25;95476.34;;;3.74;100.00
11487;BME280;10510;47.942;9.442;2022-11-13T00:50:25;95484.09;;;3.74;100.00
11487;BME280;10510;47.942;9.442;2022-11-13T00:52:25;95475.75;;;3.70;100.00
11487;BME280;10510;47.942;9.442;2022-11-13T00:54:25;95465.63;;;3.67;100.00
11487;BME280;10510;47.942;9.442;2022-11-13T00:56:26;95467.66;;;3.63;100.00
11487;BME280;10510;47.942;9.442;2022-11-13T00:58:26;95463.44;;;3.62;100.00
11487;BME280;10510;47.942;9.442;2022-11-13T01:00:27;95462.63;;;3.62;100.00
11487;BME280;10510;47.942;9.442;2022-11-13T01:02:27;95458.25;;;3.62;100.00
11487;BME280;10510;47.942;9.442;2022-11-13T01:04:28;95453.91;;;3.63;100.00
11487;BME280;10510;47.942;9.442;2022-11-13T01:06:28;95455.44;;;3.66;100.00
11487;BME280;10510;47.942;9.442;2022-11-13T01:08:28;95453.78;;;3.64;100.00
11487;BME280;10510;47.942;9.442;2022-11-13T01:10:28;95455.28;;;3.67;100.00
11487;BME280;10510;47.942;9.442;2022-11-13T01:12:29;95448.25;;;3.69;100.00
11487;BME280;10510;47.942;9.442;2022-11-13T01:14:29;95443.91;;;3.70;100.00
11487;BME280;10510;47.942;9.442;2022-11-13T01:16:30;95437.66;;;3.72;100.00
11487;BME280;10510;47.942;9.442;2022-11-13T01:18:30;95439.53;;;3.70;100.00
11487;BME280;10510;47.942;9.442;2022-11-13T01:20:30;95444.97;;;3.67;100.00
11487;BME280;10510;47.942;9.442;2022-11-13T01:22:32;95434.03;;;3.63;100.00
11487;BME280;10510;47.942;9.442;2022-11-13T01:24:32;95435.91;;;3.61;100.00
11487;BME280;10510;47.942;9.442;2022-11-13T01:26:32;95434.28;;;3.60;100.00
11487;BME280;10510;47.942;9.442;2022-11-13T01:28:32;95433.34;;;3.61;100.00
11487;BME280;10510;47.942;9.442;2022-11-13T01:30:33;95429.00;;;3.62;100.00
11487;BME280;10510;47.942;9.442;2022-11-13T01:32:34;95428.06;;;3.63;100.00
11487;BME280;10510;47.942;9.442;2022-11-13T01:34:35;95421.13;;;3.63;100.00
11487;BME280;10510;47.942;9.442;2022-11-13T01:36:35;95418.53;;;3.63;100.00
11487;BME280;10510;47.942;9.442;2022-11-13T01:38:36;95417.72;;;3.63;100.00
11487;BME280;10510;47.942;9.442;2022-11-13T01:40:44;95416.91;;;3.62;100.00
11487;BME280;10510;47.942;9.442;2022-11-13T01:42:44;95425.34;;;3.64;100.00
11487;BME280;10510;47.942;9.442;2022-11-13T01:44:53;95414.31;;;3.62;100.00
11487;BME280;10510;47.942;9.442;2022-11-13T01:46:55;95415.13;;;3.63;100.00
11487;BME280;10510;47.942;9.442;2022-11-13T01:49:11;95414.06;;;3.66;100.00
11487;BME280;10510;47.942;9.442;2022-11-13T01:51:20;95412.31;;;3.66;100.00
11487;BME280;10510;47.942;9.442;2022-11-13T01:53:23;95411.34;;;3.67;100.00
11487;BME280;10510;47.942;9.442;2022-11-13T01:55:24;95404.53;;;3.66;100.00
11487;BME280;10510;47.942;9.442;2022-11-13T01:57:25;95407.94;;;3.67;100.00
11487;BME280;10510;47.942;9.442;2022-11-13T01:59:28;95400.91;;;3.69;100.00
11487;BME280;10510;47.942;9.442;2022-11-13T02:01:29;95392.31;;;3.68;100.00
11487;BME280;10510;47.942;9.442;2022-11-13T02:03:30;95399.25;;;3.68;100.00
11487;BME280;10510;47.942;9.442;2022-11-13T02:05:30;95391.72;;;3.64;100.00
11487;BME280;10510;47.942;9.442;2022-11-13T02:07:30;95392.81;;;3.62;100.00
11487;BME280;10510;47.942;9.442;2022-11-13T02:09:37;95385.16;;;3.60;100.00
11487;BME280;10510;47.942;9.442;2022-11-13T02:11:38;95381.06;;;3.58;100.00
11487;BME280;10510;47.942;9.442;2022-11-13T02:13:39;95383.78;;;3.56;100.00
11487;BME280;10510;47.942;9.442;2022-11-13T02:15:40;95378.63;;;3.56;100.00
11487;BME280;10510;47.942;9.442;2022-11-13T02:18:05;95369.09;;;3.57;100.00
11487;BME280;10510;47.942;9.442;2022-11-13T02:20:06;95373.19;;;3.59;100.00
11487;BME280;10510;47.942;9.442;2022-11-13T02:22:18;95371.69;;;3.57;100.00
11487;BME280;10510;47.942;9.442;2022-11-13T02:24:32;95374.38;;;3.55;100.00
11487;BME280;10510;47.942;9.442;2022-11-13T02:26:33;95364.03;;;3.55;100.00
11487;BME280;10510;47.942;9.442;2022-11-13T02:28:35;95369.91;;;3.57;100.00
11487;BME280;10510;47.942;9.442;2022-11-13T02:30:35;95372.75;;;3.54;100.00
11487;BME280;10510;47.942;9.442;2022-11-13T02:32:44;95365.94;;;3.53;100.00
11487;BME280;10510;47.942;9.442;2022-11-13T02:34:44;95353.94;;;3.52;100.00
11487;BME280;10510;47.942;9.442;2022-11-13T02:36:45;95353.69;;;3.55;100.00
11487;BME280;10510;47.942;9.442;2022-11-13T02:38:46;95351.81;;;3.57;100.00
11487;BME280;10510;47.942;9.442;2022-11-13T02:40:46;95346.41;;;3.60;100.00
11487;BME280;10510;47.942;9.442;2022-11-13T02:42:47;95344.16;;;3.56;100.00
11487;BME280;10510;47.942;9.442;2022-11-13T02:44:47;95343.34;;;3.55;100.00
11487;BME280;10510;47.942;9.442;2022-11-13T02:46:47;95341.72;;;3.54;100.00
11487;BME280;10510;47.942;9.442;2022-11-13T02:48:48;95340.09;;;3.53;100.00
11487;BME280;10510;47.942;9.442;2022-11-13T02:50:56;95335.72;;;3.54;100.00
11487;BME280;10510;47.942;9.442;2022-11-13T02:52:57;95339.13;;;3.54;100.00
11487;BME280;10510;47.942;9.442;2022-11-13T02:54:58;95331.38;;;3.54;100.00
11487;BME280;10510;47.942;9.442;2022-11-13T02:56:58;95336.56;;;3.54;100.00
11487;BME280;10510;47.942;9.442;2022-11-13T02:58:58;95327.03;;;3.55;100.00
11487;BME280;10510;47.942;9.442;2022-11-13T03:01:01;95321.84;;;3.55;100.00
11487;BME280;10510;47.942;9.442;2022-11-13T03:03:02;95313.41;;;3.53;100.00
11487;BME280;10510;47.942;9.442;2022-11-13T03:05:03;95318.47;;;3.54;100.00
11487;BME280;10510;47.942;9.442;2022-11-13T03:07:03;95319.97;;;3.57;100.00
11487;BME280;10510;47.942;9.442;2022-11-13T03:09:03;95320.78;;;3.57;100.00
11487;BME280;10510;47.942;9.442;2022-11-13T03:11:08;95317.25;;;3.58;100.00
11487;BME280;10510;47.942;9.442;2022-11-13T03:13:09;95312.94;;;3.59;100.00
11487;BME280;10510;47.942;9.442;2022-11-13T03:15:09;95318.78;;;3.61;100.00
11487;BME280;10510;47.942;9.442;2022-11-13T03:17:09;95308.44;;;3.61;100.00
11487;BME280;10510;47.942;9.442;2022-11-13T03:19:10;95304.22;;;3.60;100.00
11487;BME280;10510;47.942;9.442;2022-11-13T03:21:12;95300.00;;;3.59;100.00
11487;BME280;10510;47.942;9.442;2022-11-13T03:23:13;95301.06;;;3.56;100.00
11487;BME280;10510;47.942;9.442;2022-11-13T03:25:13;95303.06;;;3.53;100.00
11487;BME280;10510;47.942;9.442;2022-11-13T03:27:13;95303.06;;;3.53;100.00
11487;BME280;10510;47.942;9.442;2022-11-13T03:29:14;95298.72;;;3.53;100.00
11487;BME280;10510;47.942;9.442;2022-11-13T03:31:14;95299.53;;;3.54;100.00
11487;BME280;10510;47.942;9.442;2022-11-13T03:33:15;95299.53;;;3.54;100.00
11487;BME280;10510;47.942;9.442;2022-11-13T03:35:15;95311.53;;;3.55;100.00
11487;BME280;10510;47.942;9.442;2022-11-13T03:37:15;95307.16;;;3.55;100.00
11487;BME280;10510;47.942;9.442;2022-11-13T03:39:16;95302.13;;;3.54;100.00
11487;BME280;10510;47.942;9.442;2022-11-13T03:41:16;95299.53;;;3.54;100.00
11487;BME280;10510;47.942;9.442;2022-11-13T03:43:17;95302.25;;;3.52;100.00
11487;BME280;10510;47.942;9.442;2022-11-13T03:45:17;95294.63;;;3.51;100.00
11487;BME280;10510;47.942;9.442;2022-11-13T03:47:17;95294.75;;;3.49;100.00
11487;BME280;10510;47.942;9.442;2022-11-13T03:49:18;95286.31;;;3.47;100.00
11487;BME280;10510;47.942;9.442;2022-11-13T03:51:18;95294.06;;;3.47;100.00
11487;BME280;10510;47.942;9.442;2022-11-13T03:53:18;95291.59;;;3.46;100.00
11487;BME280;10510;47.942;9.442;2022-11-13T03:55:19;95289.09;;;3.44;100.00
11487;BME280;10510;47.942;9.442;2022-11-13T03:57:19;95288.44;;;3.42;100.00
11487;BME280;10510;47.942;9.442;2022-11-13T03:59:19;95285.84;;;3.42;100.00
11487;BME280;10510;47.942;9.442;2022-11-13T04:01:19;95285.84;;;3.42;100.00
11487;BME280;10510;47.942;9.442;2022-11-13T04:03:20;95287.22;;;3.46;100.00
11487;BME280;10510;47.942;9.442;2022-11-13T04:05:21;95290.53;;;3.48;100.00
11487;BME280;10510;47.942;9.442;2022-11-13T04:07:21;95282.78;;;3.48;100.00
11487;BME280;10510;47.942;9.442;2022-11-13T04:09:21;95283.47;;;3.50;100.00
11487;BME280;10510;47.942;9.442;2022-11-13T04:11:22;95281.56;;;3.52;100.00
11487;BME280;10510;47.942;9.442;2022-11-13T04:13:22;95273.69;;;3.54;100.00
11487;BME280;10510;47.942;9.442;2022-11-13T04:15:22;95273.44;;;3.57;100.00
11487;BME280;10510;47.942;9.442;2022-11-13T04:17:22;95270.06;;;3.56;100.00
11487;BME280;10510;47.942;9.442;2022-11-13T04:19:23;95271.78;;;3.56;100.00
11487;BME280;10510;47.942;9.442;2022-11-13T04:21:23;95264.19;;;3.54;100.00
11487;BME280;10510;47.942;9.442;2022-11-13T04:23:23;95255.59;;;3.54;100.00
11487;BME280;10510;47.942;9.442;2022-11-13T04:25:24;95253.13;;;3.52;100.00
11487;BME280;10510;47.942;9.442;2022-11-13T04:27:25;95254.09;;;3.51;100.00
11487;BME280;10510;47.942;9.442;2022-11-13T04:29:25;95252.31;;;3.52;100.00
11487;BME280;10510;47.942;9.442;2022-11-13T04:31:25;95253.13;;;3.52;100.00
11487;BME280;10510;47.942;9.442;2022-11-13T04:33:26;95253.03;;;3.54;100.00
11487;BME280;10510;47.942;9.442;2022-11-13T04:35:26;95255.59;;;3.54;100.00
11487;BME280;10510;47.942;9.442;2022-11-13T04:37:26;95250.53;;;3.52;100.00
11487;BME280;10510;47.942;9.442;2022-11-13T04:39:27;95255.84;;;3.51;100.00
11487;BME280;10510;47.942;9.442;2022-11-13T04:41:27;95245.53;;;3.51;100.00
11487;BME280;10510;47.942;9.442;2022-11-13T04:43:46;95244.56;;;3.52;100.00
11487;BME280;10510;47.942;9.442;2022-11-13T04:45:46;95251.63;;;3.50;100.00
11487;BME280;10510;47.942;9.442;2022-11-13T04:47:47;95244.25;;;3.45;100.00
11487;BME280;10510;47.942;9.442;2022-11-13T04:49:47;95239.09;;;3.45;100.00
11487;BME280;10510;47.942;9.442;2022-11-13T04:51:47;95233.91;;;3.45;100.00
11487;BME280;10510;47.942;9.442;2022-11-13T04:53:48;95231.34;;;3.45;100.00
11487;BME280;10510;47.942;9.442;2022-11-13T04:55:48;95230.38;;;3.46;100.00
11487;BME280;10510;47.942;9.442;2022-11-13T04:57:48;95229.66;;;3.44;100.00
11487;BME280;10510;47.942;9.442;2022-11-13T04:59:50;95230.38;;;3.46;100.00
11487;BME280;10510;47.942;9.442;2022-11-13T05:01:50;95229.66;;;3.44;100.00
11487;BME280;10510;47.942;9.442;2022-11-13T05:03:51;95224.66;;;3.42;100.00
11487;BME280;10510;47.942;9.442;2022-11-13T05:05:51;95229.00;;;3.42;100.00
11487;BME280;10510;47.942;9.442;2022-11-13T05:07:51;95227.34;;;3.41;100.00
11487;BME280;10510;47.942;9.442;2022-11-13T05:09:52;95223.81;;;3.42;100.00
11487;BME280;10510;47.942;9.442;2022-11-13T05:11:52;95212.78;;;3.40;100.00
11487;BME280;10510;47.942;9.442;2022-11-13T05:13:53;95206.09;;;3.37;100.00
11487;BME280;10510;47.942;9.442;2022-11-13T05:16:01;95204.47;;;3.36;100.00
11487;BME280;10510;47.942;9.442;2022-11-13T05:18:02;95204.34;;;3.38;100.00
11487;BME280;10510;47.942;9.442;2022-11-13T05:20:03;95197.44;;;3.38;100.00
11487;BME280;10510;47.942;9.442;2022-11-13T05:22:04;95201.50;;;3.41;100.00
11487;BME280;10510;47.942;9.442;2022-11-13T05:24:05;95197.97;;;3.42;100.00
11487;BME280;10510;47.942;9.442;2022-11-13T05:26:11;95199.63;;;3.43;100.00
11487;BME280;10510;47.942;9.442;2022-11-13T05:28:12;95199.63;;;3.43;100.00
11487;BME280;10510;47.942;9.442;2022-11-13T05:30:12;95194.44;;;3.43;100.00
11487;BME280;10510;47.942;9.442;2022-11-13T05:32:12;95200.31;;;3.45;100.00
11487;BME280;10510;47.942;9.442;2022-11-13T05:34:13;95189.28;;;3.43;100.00
11487;BME280;10510;47.942;9.442;2022-11-13T05:36:15;95193.75;;;3.41;100.00
11487;BME280;10510;47.942;9.442;2022-11-13T05:38:15;95186.00;;;3.41;100.00
11487;BME280;10510;47.942;9.442;2022-11-13T05:40:16;95187.91;;;3.39;100.00
11487;BME280;10510;47.942;9.442;2022-11-13T05:42:16;95194.84;;;3.38;100.00
11487;BME280;10510;47.942;9.442;2022-11-13T05:44:16;95190.50;;;3.39;100.00
11487;BME280;10510;47.942;9.442;2022-11-13T05:46:19;95187.91;;;3.39;100.00
11487;BME280;10510;47.942;9.442;2022-11-13T05:48:20;95187.75;;;3.40;100.00
11487;BME280;10510;47.942;9.442;2022-11-13T05:50:20;95186.00;;;3.41;100.00
11487;BME280;10510;47.942;9.442;2022-11-13T05:52:21;95186.69;;;3.43;100.00
11487;BME280;10510;47.942;9.442;2022-11-13T05:54:21;95183.16;;;3.44;100.00
11487;BME280;10510;47.942;9.442;2022-11-13T05:56:27;95189.16;;;3.45;100.00
11487;BME280;10510;47.942;9.442;2022-11-13T05:58:29;95197.59;;;3.47;100.00
11487;BME280;10510;47.942;9.442;2022-11-13T06:00:29;95190.78;;;3.46;100.00
11487;BME280;10510;47.942;9.442;2022-11-13T06:02:29;95182.94;;;3.47;100.00
11487;BME280;10510;47.942;9.442;2022-11-13T06:04:30;95185.63;;;3.46;100.00
11487;BME280;10510;47.942;9.442;2022-11-13T06:06:30;95195.84;;;3.47;100.00
11487;BME280;10510;47.942;9.442;2022-11-13T06:08:31;95192.41;;;3.47;100.00
11487;BME280;10510;47.942;9.442;2022-11-13T06:10:31;95188.78;;;3.49;100.00
11487;BME280;10510;47.942;9.442;2022-11-13T06:12:32;95177.50;;;3.50;100.00
11487;BME280;10510;47.942;9.442;2022-11-13T06:14:32;95178.44;;;3.49;100.00
11487;BME280;10510;47.942;9.442;2022-11-13T06:16:34;95178.31;;;3.51;100.00
11487;BME280;10510;47.942;9.442;2022-11-13T06:18:36;95180.91;;;3.51;100.00
11487;BME280;10510;47.942;9.442;2022-11-13T06:20:36;95181.00;;;3.49;100.00
11487;BME280;10510;47.942;9.442;2022-11-13T06:22:37;95180.47;;;3.46;100.00
11487;BME280;10510;47.942;9.442;2022-11-13T06:24:37;95173.66;;;3.45;100.00
11487;BME280;10510;47.942;9.442;2022-11-13T06:26:37;95173.66;;;3.45;100.00
11487;BME280;10510;47.942;9.442;2022-11-13T06:28:38;95174.72;;;3.42;100.00
11487;BME280;10510;47.942;9.442;2022-11-13T06:30:39;95165.31;;;3.41;100.00
11487;BME280;10510;47.942;9.442;2022-11-13T06:32:39;95165.31;;;3.41;100.00
11487;BME280;10510;47.942;9.442;2022-11-13T06:34:39;95160.16;;;3.41;100.00
11487;BME280;10510;47.942;9.442;2022-11-13T06:36:40;95155.25;;;3.38;100.00
11487;BME280;10510;47.942;9.442;2022-11-13T06:38:41;95155.38;;;3.36;100.00
11487;BME280;10510;47.942;9.442;2022-11-13T06:40:41;95160.41;;;3.38;100.00
11487;BME280;10510;47.942;9.442;2022-11-13T06:42:41;95151.03;;;3.37;100.00
11487;BME280;10510;47.942;9.442;2022-11-13T06:44:42;95159.72;;;3.36;100.00
11487;BME280;10510;47.942;9.442;2022-11-13T06:46:42;95154.81;;;3.33;100.00
11487;BME280;10510;47.942;9.442;2022-11-13T06:48:42;95155.06;;;3.30;100.00
11487;BME280;10510;47.942;9.442;2022-11-13T06:50:43;95153.56;;;3.27;100.00
11487;BME280;10510;47.942;9.442;2022-11-13T06:52:43;95143.22;;;3.27;100.00
11487;BME280;10510;47.942;9.442;2022-11-13T06:54:43;95145.09;;;3.25;100.00
11487;BME280;10510;47.942;9.442;2022-11-13T06:56:44;95155.69;;;3.22;100.00
11487;BME280;10510;47.942;9.442;2022-11-13T06:58:44;95147.94;;;3.22;100.00
11487;BME280;10510;47.942;9.442;2022-11-13T07:00:45;95154.88;;;3.22;100.00
11487;BME280;10510;47.942;9.442;2022-11-13T07:02:47;95153.22;;;3.21;100.00
11487;BME280;10510;47.942;9.442;2022-11-13T07:04:49;95158.28;;;3.22;100.00
11487;BME280;10510;47.942;9.442;2022-11-13T07:06:49;95164.16;;;3.24;100.00
11487;BME280;10510;47.942;9.442;2022-11-13T07:08:50;95161.56;;;3.24;100.00
11487;BME280;10510;47.942;9.442;2022-11-13T07:10:52;95154.72;;;3.23;100.00
11487;BME280;10510;47.942;9.442;2022-11-13T07:12:54;95149.31;;;3.26;100.00
11487;BME280;10510;47.942;9.442;2022-11-13T07:14:54;95148.38;;;3.27;100.00
11487;BME280;10510;47.942;9.442;2022-11-13T07:16:54;95156.00;;;3.29;100.00
11487;BME280;10510;47.942;9.442;2022-11-13T07:18:54;95148.94;;;3.31;100.00
11487;BME280;10510;47.942;9.442;2022-11-13T07:20:55;95148.69;;;3.34;100.00
11487;BME280;10510;47.942;9.442;2022-11-13T07:23:00;95142.72;;;3.33;100.00
11487;BME280;10510;47.942;9.442;2022-11-13T07:25:00;95146.22;;;3.32;100.00
11487;BME280;10510;47.942;9.442;2022-11-13T07:27:01;95143.63;;;3.32;100.00
11487;BME280;10510;47.942;9.442;2022-11-13T07:29:01;95139.97;;;3.35;100.00
11487;BME280;10510;47.942;9.442;2022-11-13T07:31:02;95133.75;;;3.37;100.00
11487;BME280;10510;47.942;9.442;2022-11-13T07:33:03;95138.91;;;3.37;100.00
11487;BME280;10510;47.942;9.442;2022-11-13T07:35:04;95141.66;;;3.36;100.00
11487;BME280;10510;47.942;9.442;2022-11-13T07:37:04;95137.16;;;3.38;100.00
11487;BME280;10510;47.942;9.442;2022-11-13T07:39:05;95141.50;;;3.37;100.00
11487;BME280;10510;47.942;9.442;2022-11-13T07:41:06;95136.47;;;3.36;100.00
11487;BME280;10510;47.942;9.442;2022-11-13T07:43:07;95142.56;;;3.35;100.00
11487;BME280;10510;47.942;9.442;2022-11-13T07:45:07;95133.19;;;3.34;100.00
11487;BME280;10510;47.942;9.442;2022-11-13T07:47:08;95135.66;;;3.35;100.00
11487;BME280;10510;47.942;9.442;2022-11-13T07:49:08;95138.25;;;3.35;100.00
11487;BME280;10510;47.942;9.442;2022-11-13T07:51:08;95129.66;;;3.35;100.00
11487;BME280;10510;47.942;9.442;2022-11-13T07:53:09;95133.06;;;3.35;100.00
11487;BME280;10510;47.942;9.442;2022-11-13T07:55:09;95125.19;;;3.37;100.00
11487;BME280;10510;47.942;9.442;2022-11-13T07:57:09;95125.06;;;3.38;100.00
11487;BME280;10510;47.942;9.442;2022-11-13T07:59:09;95123.97;;;3.41;100.00
11487;BME280;10510;47.942;9.442;2022-11-13T08:01:10;95127.25;;;3.43;100.00
11487;BME280;10510;47.942;9.442;2022-11-13T08:03:12;95124.81;;;3.41;100.00
11487;BME280;10510;47.942;9.442;2022-11-13T08:05:14;95129.13;;;3.41;100.00
11487;BME280;10510;47.942;9.442;2022-11-13T08:07:14;95120.56;;;3.40;100.00
11487;BME280;10510;47.942;9.442;2022-11-13T08:09:14;95121.66;;;3.38;100.00
11487;BME280;10510;47.942;9.442;2022-11-13T08:11:15;95126.00;;;3.37;100.00
11487;BME280;10510;47.942;9.442;2022-11-13T08:13:15;95115.56;;;3.39;100.00
11487;BME280;10510;47.942;9.442;2022-11-13T08:15:15;95126.44;;;3.42;100.00
11487;BME280;10510;47.942;9.442;2022-11-13T08:17:16;95127.25;;;3.43;100.00
11487;BME280;10510;47.942;9.442;2022-11-13T08:19:16;95133.25;;;3.44;100.00
11487;BME280;10510;47.942;9.442;2022-11-13T08:21:17;95122.66;;;3.47;100.00
11487;BME280;10510;47.942;9.442;2022-11-13T08:23:17;95124.31;;;3.48;100.00
11487;BME280;10510;47.942;9.442;2022-11-13T08:25:18;95112.19;;;3.48;100.00
11487;BME280;10510;47.942;9.442;2022-11-13T08:27:21;95100.09;;;3.49;100.00
11487;BME280;10510;47.942;9.442;2022-11-13T08:29:22;95100.09;;;3.49;100.00
11487;BME280;10510;47.942;9.442;2022-11-13T08:31:22;95096.81;;;3.47;100.00
11487;BME280;10510;47.942;9.442;2022-11-13T08:33:22;95091.63;;;3.47;100.00
11487;BME280;10510;47.942;9.442;2022-11-13T08:35:23;95097.06;;;3.44;100.00
11487;BME280;10510;47.942;9.442;2022-11-13T08:37:23;95100.59;;;3.42;100.00
11487;BME280;10510;47.942;9.442;2022-11-13T08:39:23;95090.53;;;3.39;100.00
11487;BME280;10510;47.942;9.442;2022-11-13T08:41:24;95094.88;;;3.39;100.00
11487;BME280;10510;47.942;9.442;2022-11-13T08:43:24;95104.97;;;3.42;100.00
11487;BME280;10510;47.942;9.442;2022-11-13T08:45:25;95108.09;;;3.46;100.00
11487;BME280;10510;47.942;9.442;2022-11-13T08:47:25;95098.31;;;3.49;100.00
11487;BME280;10510;47.942;9.442;2022-11-13T08:49:27;95102.56;;;3.50;100.00
11487;BME280;10510;47.942;9.442;2022-11-13T08:51:27;95097.94;;;3.54;100.00
11487;BME280;10510;47.942;9.442;2022-11-13T08:53:28;95098.59;;;3.56;100.00
11487;BME280;10510;47.942;9.442;2022-11-13T08:55:28;95095.78;;;3.59;100.00
11487;BME280;10510;47.942;9.442;2022-11-13T08:57:28;95095.66;;;3.60;100.00
11487;BME280;10510;47.942;9.442;2022-11-13T08:59:28;95098.78;;;3.64;100.00
11487;BME280;10510;47.942;9.442;2022-11-13T09:01:29;95108.19;;;3.65;100.00
11487;BME280;10510;47.942;9.442;2022-11-13T09:03:29;95097.84;;;3.65;100.00
11487;BME280;10510;47.942;9.442;2022-11-13T09:05:30;95100.56;;;3.63;100.00
11487;BME280;10510;47.942;9.442;2022-11-13T09:07:30;95106.44;;;3.66;100.00
11487;BME280;10510;47.942;9.442;2022-11-13T09:09:30;95085.47;;;3.69;100.00
11487;BME280;10510;47.942;9.442;2022-11-13T09:11:31;95074.59;;;3.65;100.00
11487;BME280;10510;47.942;9.442;2022-11-13T09:13:33;95067.75;;;3.64;100.00
11487;BME280;10510;47.942;9.442;2022-11-13T09:15:36;95067.09;;;3.62;100.00
11487;BME280;10510;47.942;9.442;2022-11-13T09:17:37;95088.19;;;3.67;100.00
11487;BME280;10510;47.942;9.442;2022-11-13T09:19:37;95096.09;;;3.66;100.00
11487;BME280;10510;47.942;9.442;2022-11-13T09:21:37;95098.41;;;3.69;100.00
11487;BME280;10510;47.942;9.442;2022-11-13T09:23:38;95089.69;;;3.70;100.00
11487;BME280;10510;47.942;9.442;2022-11-13T09:25:38;95085.22;;;3.72;100.00
11487;BME280;10510;47.942;9.442;2022-11-13T09:27:38;95091.75;;;3.76;100.00
11487;BME280;10510;47.942;9.442;2022-11-13T09:29:39;95090.56;;;3.80;100.00
11487;BME280;10510;47.942;9.442;2022-11-13T09:31:39;95092.31;;;3.79;100.00
11487;BME280;10510;47.942;9.442;2022-11-13T09:33:40;95092.06;;;3.82;100.00
11487;BME280;10510;47.942;9.442;2022-11-13T09:35:41;95079.00;;;3.84;100.00
11487;BME280;10510;47.942;9.442;2022-11-13T09:37:42;95079.97;;;3.83;100.00
11487;BME280;10510;47.942;9.442;2022-11-13T09:39:42;95079.00;;;3.84;100.00
11487;BME280;10510;47.942;9.442;2022-11-13T09:43:55;95085.69;;;3.86;100.00
11487;BME280;10510;47.942;9.442;2022-11-13T09:46:02;95092.47;;;3.87;100.00
11487;BME280;10510;47.942;9.442;2022-11-13T09:48:24;95104.34;;;3.90;100.00
11487;BME280;10510;47.942;9.442;2022-11-13T09:50:30;95110.06;;;3.94;100.00
11487;BME280;10510;47.942;9.442;2022-11-13T09:52:37;95092.66;;;3.96;100.00
11487;BME280;10510;47.942;9.442;2022-11-13T09:54:38;95089.94;;;3.97;100.00
11487;BME280;10510;47.942;9.442;2022-11-13T09:56:42;95089.25;;;3.95;100.00
11487;BME280;10510;47.942;9.442;2022-11-13T10:00:50;95083.53;;;4.01;100.00
11487;BME280;10510;47.942;9.442;2022-11-13T10:05:22;95071.44;;;4.12;100.00
11487;BME280;10510;47.942;9.442;2022-11-13T10:08:15;95075.25;;;4.17;100.00
11487;BME280;10510;47.942;9.442;2022-11-13T10:10:39;95089.72;;;4.20;100.00
11487;BME280;10510;47.942;9.442;2022-11-13T10:12:43;95065.75;;;4.18;100.00
11487;BME280;10510;47.942;9.442;2022-11-13T10:14:50;95055.53;;;4.16;100.00
11487;BME280;10510;47.942;9.442;2022-11-13T10:17:02;95050.22;;;4.18;100.00
11487;BME280;10510;47.942;9.442;2022-11-13T10:19:13;95055.13;;;4.21;100.00
11487;BME280;10510;47.942;9.442;2022-11-13T10:21:31;95055.00;;;4.22;100.00
11487;BME280;10510;47.942;9.442;2022-11-13T10:23:36;95049.53;;;4.25;100.00
11487;BME280;10510;47.942;9.442;2022-11-13T10:25:37;95058.69;;;4.29;100.00
11487;BME280;10510;47.942;9.442;2022-11-13T10:27:38;95052.56;;;4.30;100.00
11487;BME280;10510;47.942;9.442;2022-11-13T10:29:38;95049.28;;;4.28;100.00
11487;BME280;10510;47.942;9.442;2022-11-13T10:31:45;95044.91;;;4.29;100.00
11487;BME280;10510;47.942;9.442;2022-11-13T10:33:46;95038.66;;;4.31;100.00
11487;BME280;10510;47.942;9.442;2022-11-13T10:35:49;95024.78;;;4.32;100.00
11487;BME280;10510;47.942;9.442;2022-11-13T10:37:59;95032.41;;;4.34;100.00
11487;BME280;10510;47.942;9.442;2022-11-13T10:40:00;95023.66;;;4.35;100.00
11487;BME280;10510;47.942;9.442;2022-11-13T10:42:00;95019.06;;;4.39;100.00
11487;BME280;10510;47.942;9.442;2022-11-13T10:44:05;95014.16;;;4.45;100.00
11487;BME280;10510;47.942;9.442;2022-11-13T10:46:18;95007.06;;;4.47;100.00
11487;BME280;10510;47.942;9.442;2022-11-13T10:48:22;95003.66;;;4.47;100.00
11487;BME280;10510;47.942;9.442;2022-11-13T10:50:28;95006.91;;;4.49;100.00
11487;BME280;10510;47.942;9.442;2022-11-13T10:52:28;95000.94;;;4.48;100.00